createdAt,value
2019-02-27T00:01:07.202Z,64.00
2019-02-27T00:02:22.709Z,63.80
2019-02-27T00:03:35.450Z,64.10
2019-02-27T00:04:48.666Z,64.00
2019-02-27T00:06:01.946Z,64.30
2019-02-27T00:07:15.188Z,65.10
2019-02-27T00:08:28.428Z,64.70
2019-02-27T00:09:41.654Z,64.90
2019-02-27T00:10:54.873Z,64.20
2019-02-27T00:12:08.082Z,64.00
2019-02-27T00:13:24.724Z,64.50
2019-02-27T00:14:36.249Z,64.50
2019-02-27T00:15:50.874Z,64.50
2019-02-27T00:17:05.309Z,64.50
2019-02-27T00:18:18.493Z,65.00
2019-02-27T00:19:31.986Z,65.30
2019-02-27T00:20:45.209Z,65.40
2019-02-27T00:21:58.425Z,65.00
2019-02-27T00:23:11.659Z,64.80
2019-02-27T00:24:29.622Z,65.00
2019-02-27T00:25:39.817Z,64.70
2019-02-27T00:26:53.501Z,64.80
2019-02-27T00:28:06.722Z,65.20
2019-02-27T00:29:19.949Z,65.00
2019-02-27T00:30:33.165Z,64.90
2019-02-27T00:31:46.380Z,65.70
2019-02-27T00:32:59.601Z,65.70
2019-02-27T00:34:12.834Z,65.20
2019-02-27T00:35:26.054Z,65.00
2019-02-27T00:36:44.894Z,64.90
2019-02-27T00:37:55.837Z,64.60
2019-02-27T00:39:09.305Z,64.50
2019-02-27T00:40:22.553Z,64.50
2019-02-27T00:41:35.782Z,64.20
2019-02-27T00:42:48.997Z,64.50
2019-02-27T00:44:02.262Z,65.30
2019-02-27T00:45:15.477Z,64.90
2019-02-27T00:46:28.701Z,65.40
2019-02-27T00:47:41.921Z,65.50
2019-02-27T00:48:59.059Z,65.70
2019-02-27T00:50:10.271Z,66.00
2019-02-27T00:51:23.486Z,66.40
2019-02-27T00:52:36.712Z,66.60
2019-02-27T00:53:49.929Z,65.60
2019-02-27T00:55:05.203Z,65.50
2019-02-27T00:56:18.584Z,65.80
2019-02-27T00:57:31.812Z,65.20
2019-02-27T00:58:45.025Z,65.30
2019-02-27T00:59:58.261Z,65.60
2019-02-27T01:01:12.588Z,65.70
2019-02-27T01:02:26.579Z,65.40
2019-02-27T01:03:39.803Z,65.20
2019-02-27T01:04:53.029Z,65.20
2019-02-27T01:06:06.255Z,64.90
2019-02-27T01:07:20.703Z,65.00
2019-02-27T01:08:34.644Z,65.00
2019-02-27T01:09:47.853Z,65.00
2019-02-27T01:11:01.322Z,64.60
2019-02-27T01:12:14.542Z,64.60
2019-02-27T01:13:28.930Z,64.70
2019-02-27T01:14:42.754Z,64.80
2019-02-27T01:15:55.981Z,64.30
2019-02-27T01:17:09.193Z,64.20
2019-02-27T01:18:22.465Z,64.50
2019-02-27T01:19:39.258Z,65.00
2019-02-27T01:20:52.261Z,64.80
2019-02-27T01:22:05.494Z,65.30
2019-02-27T01:23:18.716Z,64.90
2019-02-27T01:24:31.936Z,64.70
2019-02-27T01:25:45.152Z,64.20
2019-02-27T01:26:58.379Z,64.00
2019-02-27T01:28:11.672Z,63.90
2019-02-27T01:29:24.891Z,64.20
2019-02-27T01:30:38.106Z,64.30
2019-02-27T01:31:51.354Z,63.80
2019-02-27T01:33:04.867Z,63.50
2019-02-27T01:34:18.190Z,63.00
2019-02-27T01:35:31.421Z,63.00
2019-02-27T01:36:44.635Z,62.90
2019-02-27T01:37:57.858Z,62.90
2019-02-27T01:39:11.344Z,62.60
2019-02-27T01:40:25.269Z,62.80
2019-02-27T01:41:38.487Z,63.00
2019-02-27T01:42:51.713Z,63.00
2019-02-27T01:44:04.937Z,62.60
2019-02-27T01:45:20.613Z,63.00
2019-02-27T01:46:33.098Z,63.30
2019-02-27T01:47:46.309Z,63.30
2019-02-27T01:48:59.545Z,63.00
2019-02-27T01:50:24.870Z,62.80
2019-02-27T01:51:38.093Z,62.80
2019-02-27T01:52:51.313Z,63.10
2019-02-27T01:54:04.541Z,63.70
2019-02-27T01:55:21.812Z,63.20
2019-02-27T01:56:32.717Z,63.30
2019-02-27T01:57:45.931Z,63.20
2019-02-27T01:58:59.166Z,63.20
2019-02-27T02:00:12.384Z,63.10
2019-02-27T02:01:29.957Z,63.10
2019-02-27T02:02:40.612Z,63.20
2019-02-27T02:03:53.866Z,63.00
2019-02-27T02:05:07.077Z,63.30
2019-02-27T02:06:20.307Z,63.50
2019-02-27T02:07:33.525Z,63.60
2019-02-27T02:08:48.204Z,63.80
2019-02-27T02:10:01.697Z,64.20
2019-02-27T02:11:14.912Z,64.10
2019-02-27T02:12:28.174Z,64.20
2019-02-27T02:13:59.517Z,64.30
2019-02-27T02:15:21.581Z,64.60
2019-02-27T02:16:40.606Z,64.80
2019-02-27T02:18:16.228Z,65.20
2019-02-27T02:19:54.184Z,65.50
2019-02-27T02:21:19.853Z,65.10
2019-02-27T02:22:36.337Z,64.70
2019-02-27T02:24:14.911Z,64.20
2019-02-27T02:25:34.044Z,64.60
2019-02-27T02:27:01.681Z,64.70
2019-02-27T02:28:32.842Z,65.00
2019-02-27T02:29:52.983Z,65.10
2019-02-27T02:31:10.255Z,65.80
2019-02-27T02:32:32.315Z,65.70
2019-02-27T02:34:09.466Z,65.00
2019-02-27T02:35:49.614Z,65.00
2019-02-27T02:37:16.302Z,64.90
2019-02-27T02:38:55.346Z,65.20
2019-02-27T02:40:20.910Z,65.60
2019-02-27T02:41:47.939Z,64.80
2019-02-27T02:43:41.521Z,65.60
2019-02-27T02:45:13.713Z,65.60
2019-02-27T02:46:49.453Z,65.20
2019-02-27T02:48:14.390Z,66.30
2019-02-27T02:49:51.637Z,65.40
2019-02-27T02:51:29.081Z,65.60
2019-02-27T02:52:53.295Z,65.50
2019-02-27T02:54:38.185Z,65.40
2019-02-27T02:56:09.531Z,65.40
2019-02-27T02:57:36.267Z,65.90
2019-02-27T02:59:26.024Z,65.80
2019-02-27T03:00:51.478Z,65.80
2019-02-27T03:02:16.516Z,66.40
2019-02-27T03:03:37.004Z,66.50
2019-02-27T03:05:13.109Z,66.40
2019-02-27T03:06:35.099Z,66.40
2019-02-27T03:08:06.895Z,66.10
2019-02-27T03:09:23.375Z,66.70
2019-02-27T03:10:50.503Z,66.70
2019-02-27T03:12:12.833Z,66.90
2019-02-27T03:13:31.887Z,67.00
2019-02-27T03:15:03.009Z,66.90
2019-02-27T03:16:31.354Z,68.10
2019-02-27T03:17:53.763Z,67.70
2019-02-27T03:19:33.878Z,66.70
2019-02-27T03:21:13.723Z,67.10
2019-02-27T03:22:49.956Z,67.40
2019-02-27T03:24:06.432Z,67.20
2019-02-27T03:25:40.729Z,67.80
2019-02-27T03:27:10.934Z,68.20
2019-02-27T03:28:33.001Z,68.10
2019-02-27T03:30:15.095Z,67.60
2019-02-27T03:31:40.064Z,67.70
2019-02-27T03:33:23.200Z,68.10
2019-02-27T03:34:50.432Z,68.20
2019-02-27T03:36:15.888Z,68.00
2019-02-27T03:37:38.133Z,68.80
2019-02-27T03:39:03.266Z,68.40
2019-02-27T03:40:22.312Z,68.40
2019-02-27T03:41:41.597Z,69.30
2019-02-27T03:43:13.045Z,68.80
2019-02-27T03:44:34.826Z,68.40
2019-02-27T03:46:09.274Z,68.70
2019-02-27T03:47:52.176Z,69.10
2019-02-27T03:49:23.777Z,69.60
2019-02-27T03:50:52.016Z,69.80
2019-02-27T03:52:36.319Z,70.10
2019-02-27T03:53:57.194Z,70.90
2019-02-27T03:55:22.106Z,71.30
2019-02-27T03:56:43.880Z,71.80
2019-02-27T03:58:11.550Z,72.10
2019-02-27T03:59:42.076Z,72.30
2019-02-27T04:01:14.413Z,72.80
2019-02-27T04:02:42.848Z,73.00
2019-02-27T04:04:14.267Z,72.80
2019-02-27T04:05:30.813Z,73.10
2019-02-27T04:07:07.990Z,73.70
2019-02-27T04:08:43.585Z,74.00
2019-02-27T04:09:54.882Z,74.30
2019-02-27T04:11:06.802Z,74.40
2019-02-27T04:12:20.137Z,74.70
2019-02-27T04:13:33.610Z,75.00
2019-02-27T04:14:47.062Z,75.30
2019-02-27T04:16:00.285Z,75.30
2019-02-27T04:17:14.244Z,75.00
2019-02-27T04:18:28.364Z,75.40
2019-02-27T04:19:41.539Z,75.50
2019-02-27T04:20:54.755Z,75.70
2019-02-27T04:22:07.974Z,75.70
2019-02-27T04:23:21.438Z,75.50
2019-02-27T04:24:34.664Z,75.50
2019-02-27T04:25:47.889Z,75.20
2019-02-27T04:27:01.109Z,75.00
2019-02-27T04:28:14.388Z,75.30
2019-02-27T04:29:28.361Z,75.00
2019-02-27T04:30:41.577Z,74.80
2019-02-27T04:31:54.806Z,75.00
2019-02-27T04:33:08.809Z,75.40
2019-02-27T04:34:22.033Z,75.30
2019-02-27T04:35:39.259Z,75.10
2019-02-27T04:36:50.189Z,75.40
2019-02-27T04:38:04.135Z,75.40
2019-02-27T04:39:17.353Z,75.70
2019-02-27T04:40:30.578Z,75.60
2019-02-27T04:41:44.490Z,75.70
2019-02-27T04:42:59.265Z,76.20
2019-02-27T04:44:12.649Z,76.50
2019-02-27T04:45:25.875Z,76.50
2019-02-27T04:46:39.080Z,76.80
2019-02-27T04:47:52.301Z,76.90
2019-02-27T04:49:05.528Z,76.70
2019-02-27T04:50:20.621Z,76.40
2019-02-27T04:51:33.847Z,76.20
2019-02-27T04:52:47.063Z,76.00
2019-02-27T04:54:00.297Z,75.90
2019-02-27T04:55:15.624Z,75.90
2019-02-27T04:56:28.485Z,76.30
2019-02-27T04:57:45.223Z,76.20
2019-02-27T04:58:58.440Z,76.20
2019-02-27T05:00:11.672Z,76.20
2019-02-27T05:01:24.906Z,76.10
2019-02-27T05:02:38.116Z,75.80
2019-02-27T05:03:51.344Z,75.90
2019-02-27T05:05:08.570Z,75.40
2019-02-27T05:06:21.378Z,75.40
2019-02-27T05:07:34.604Z,75.30
2019-02-27T05:08:47.859Z,75.50
2019-02-27T05:10:01.140Z,75.70
2019-02-27T05:11:14.866Z,76.00
2019-02-27T05:12:28.191Z,76.10
2019-02-27T05:13:41.410Z,76.10
2019-02-27T05:14:54.705Z,76.30
2019-02-27T05:16:07.946Z,76.30
2019-02-27T05:17:21.946Z,76.30
2019-02-27T05:18:35.272Z,76.30
2019-02-27T05:19:48.490Z,76.40
2019-02-27T05:21:01.717Z,76.60
2019-02-27T05:22:14.945Z,76.10
2019-02-27T05:23:28.175Z,75.60
2019-02-27T05:24:41.574Z,75.60
2019-02-27T05:25:54.787Z,75.60
2019-02-27T05:27:15.312Z,75.90
2019-02-27T05:30:14.608Z,75.70
2019-02-27T05:31:27.851Z,76.10
2019-02-27T05:32:41.063Z,76.50
2019-02-27T05:33:58.771Z,76.40
2019-02-27T05:35:13.593Z,76.20
2019-02-27T05:36:29.010Z,76.30
2019-02-27T05:37:41.758Z,76.00
2019-02-27T05:38:55.001Z,76.20
2019-02-27T05:40:09.759Z,76.70
2019-02-27T05:41:22.993Z,76.40
2019-02-27T05:42:38.809Z,75.90
2019-02-27T05:43:51.159Z,74.60
2019-02-27T05:45:06.305Z,74.70
2019-02-27T05:46:19.531Z,74.30
2019-02-27T05:47:32.755Z,74.60
2019-02-27T05:48:45.974Z,74.60
2019-02-27T05:50:00.566Z,74.50
2019-02-27T05:51:14.125Z,75.20
2019-02-27T05:52:27.352Z,75.10
2019-02-27T05:53:40.578Z,75.60
2019-02-27T05:54:53.801Z,75.50
2019-02-27T05:56:07.210Z,75.40
2019-02-27T05:57:21.108Z,75.80
2019-02-27T05:58:35.669Z,75.90
2019-02-27T05:59:48.881Z,76.30
2019-02-27T06:01:04.888Z,76.30
2019-02-27T06:02:17.049Z,76.40
2019-02-27T06:03:31.398Z,77.20
2019-02-27T06:04:44.613Z,77.60
2019-02-27T06:05:59.181Z,77.50
2019-02-27T06:07:12.409Z,77.30
2019-02-27T06:08:25.628Z,77.40
2019-02-27T06:09:38.847Z,77.70
2019-02-27T06:10:55.161Z,78.00
2019-02-27T06:12:07.623Z,77.70
2019-02-27T06:13:21.947Z,80.60
2019-02-27T06:14:35.178Z,82.90
2019-02-27T06:15:49.198Z,81.90
2019-02-27T06:17:02.734Z,83.60
2019-02-27T06:18:15.953Z,82.10
2019-02-27T06:19:30.612Z,81.90
2019-02-27T06:20:44.127Z,82.80
2019-02-27T06:21:57.346Z,81.60
2019-02-27T06:23:10.570Z,80.10
2019-02-27T06:24:23.809Z,79.50
2019-02-27T06:25:37.044Z,79.10
2019-02-27T06:26:50.486Z,78.50
2019-02-27T06:28:03.788Z,77.90
2019-02-27T06:29:17.016Z,78.00
2019-02-27T06:30:31.376Z,78.60
2019-02-27T06:31:44.752Z,78.70
2019-02-27T06:32:57.983Z,78.80
2019-02-27T06:34:11.442Z,78.40
2019-02-27T06:35:24.676Z,77.30
2019-02-27T06:36:41.955Z,77.00
2019-02-27T06:37:52.832Z,76.40
2019-02-27T06:39:06.455Z,75.80
2019-02-27T06:40:22.118Z,75.70
2019-02-27T06:41:35.341Z,75.60
2019-02-27T06:42:51.326Z,75.50
2019-02-27T06:44:04.250Z,75.20
2019-02-27T06:45:18.011Z,74.80
2019-02-27T06:46:31.296Z,75.40
2019-02-27T06:47:44.512Z,75.70
2019-02-27T06:48:57.732Z,75.90
2019-02-27T06:50:12.893Z,76.00
2019-02-27T06:51:26.130Z,75.60
2019-02-27T06:52:42.067Z,75.90
2019-02-27T06:53:54.288Z,76.20
2019-02-27T06:55:09.466Z,75.00
2019-02-27T06:56:22.941Z,75.00
2019-02-27T06:57:36.172Z,75.70
2019-02-27T06:58:50.077Z,75.50
2019-02-27T07:00:07.101Z,75.40
2019-02-27T07:01:22.190Z,74.70
2019-02-27T07:02:35.422Z,73.00
2019-02-27T07:03:49.631Z,72.80
2019-02-27T07:05:02.877Z,73.00
2019-02-27T07:06:16.092Z,72.80
2019-02-27T07:07:31.309Z,72.80
2019-02-27T07:08:44.272Z,72.90
2019-02-27T07:09:57.487Z,72.70
2019-02-27T07:11:11.268Z,72.10
2019-02-27T07:12:24.613Z,71.90
2019-02-27T07:13:37.829Z,71.40
2019-02-27T07:14:51.045Z,71.20
2019-02-27T07:16:04.546Z,71.10
2019-02-27T07:17:40.565Z,70.20
2019-02-27T07:18:53.781Z,69.70
2019-02-27T07:20:09.445Z,69.60
2019-02-27T07:21:22.660Z,69.60
2019-02-27T07:22:36.143Z,69.50
2019-02-27T07:23:49.362Z,68.70
2019-02-27T07:25:06.377Z,68.90
2019-02-27T07:26:17.761Z,69.20
2019-02-27T07:27:31.277Z,69.20
2019-02-27T07:28:45.193Z,69.20
2019-02-27T07:29:58.419Z,69.40
2019-02-27T07:31:12.474Z,69.60
2019-02-27T07:32:26.545Z,69.70
2019-02-27T07:33:40.667Z,68.20
2019-02-27T07:34:55.112Z,67.70
2019-02-27T07:36:08.339Z,68.10
2019-02-27T07:37:21.558Z,67.30
2019-02-27T07:38:34.796Z,67.20
2019-02-27T07:39:48.062Z,67.00
2019-02-27T07:41:01.278Z,66.30
2019-02-27T07:42:16.777Z,66.30
2019-02-27T07:43:30.009Z,66.20
2019-02-27T07:44:43.246Z,65.30
2019-02-27T07:45:56.465Z,65.20
2019-02-27T07:47:09.684Z,64.90
2019-02-27T07:48:22.909Z,65.00
2019-02-27T07:49:36.133Z,64.70
2019-02-27T07:50:49.388Z,65.00
2019-02-27T07:52:02.648Z,65.70
2019-02-27T07:53:17.653Z,66.20
2019-02-27T07:54:31.066Z,66.10
2019-02-27T07:55:44.280Z,65.50
2019-02-27T07:56:57.497Z,65.10
2019-02-27T07:58:10.728Z,63.80
2019-02-27T07:59:23.969Z,62.80
2019-02-27T08:00:37.202Z,62.20
2019-02-27T08:01:50.430Z,61.80
2019-02-27T08:03:03.645Z,62.30
2019-02-27T08:04:19.187Z,62.10
2019-02-27T08:05:31.882Z,62.00
2019-02-27T08:06:45.107Z,61.60
2019-02-27T08:07:58.320Z,61.10
2019-02-27T08:09:11.543Z,61.40
2019-02-27T08:10:25.811Z,60.90
2019-02-27T08:11:40.540Z,60.50
2019-02-27T08:12:56.485Z,60.50
2019-02-27T08:14:08.692Z,60.20
2019-02-27T08:15:21.918Z,59.60
2019-02-27T08:16:36.938Z,59.20
2019-02-27T08:17:57.483Z,58.80
2019-02-27T08:19:08.914Z,58.90
2019-02-27T08:20:22.899Z,58.90
2019-02-27T08:21:36.129Z,58.60
2019-02-27T08:22:49.766Z,58.40
2019-02-27T08:24:07.454Z,58.70
2019-02-27T08:25:20.084Z,58.80
2019-02-27T08:26:33.293Z,58.50
2019-02-27T08:27:46.539Z,57.50
2019-02-27T08:28:59.761Z,57.40
2019-02-27T08:30:27.910Z,57.60
2019-02-27T08:31:41.137Z,57.50
2019-02-27T08:32:54.375Z,57.80
2019-02-27T08:34:07.580Z,56.80
2019-02-27T08:35:21.052Z,56.90
2019-02-27T08:36:34.265Z,56.40
2019-02-27T08:37:47.722Z,56.40
2019-02-27T08:39:00.946Z,56.30
2019-02-27T08:40:14.714Z,55.20
2019-02-27T08:41:29.207Z,54.90
2019-02-27T08:42:43.595Z,54.40
2019-02-27T08:43:56.848Z,53.70
2019-02-27T08:45:19.988Z,53.60
2019-02-27T08:46:34.039Z,53.50
2019-02-27T08:47:49.235Z,53.50
2019-02-27T08:49:02.453Z,53.40
2019-02-27T08:50:24.018Z,53.10
2019-02-27T08:51:36.557Z,53.20
2019-02-27T08:52:51.444Z,53.30
2019-02-27T08:54:04.730Z,53.20
2019-02-27T08:55:22.047Z,53.30
2019-02-27T08:56:33.668Z,53.00
2019-02-27T08:57:46.900Z,52.30
2019-02-27T08:59:00.132Z,52.40
2019-02-27T09:00:24.620Z,52.40
2019-02-27T09:01:37.956Z,51.80
2019-02-27T09:02:51.170Z,51.70
2019-02-27T09:04:06.112Z,51.00
2019-02-27T09:05:20.787Z,50.60
2019-02-27T09:06:34.203Z,50.40
2019-02-27T09:07:47.429Z,51.10
2019-02-27T09:09:00.652Z,50.80
2019-02-27T09:10:16.573Z,50.60
2019-02-27T09:11:29.818Z,50.30
2019-02-27T09:12:45.358Z,50.30
2019-02-27T09:13:58.718Z,50.30
2019-02-27T09:15:12.487Z,49.50
2019-02-27T09:16:26.123Z,48.40
2019-02-27T09:17:40.155Z,48.50
2019-02-27T09:18:53.385Z,47.80
2019-02-27T09:20:19.673Z,47.50
2019-02-27T09:21:32.462Z,47.10
2019-02-27T09:22:45.692Z,47.20
2019-02-27T09:23:58.926Z,46.90
2019-02-27T09:25:13.199Z,46.80
2019-02-27T09:26:26.430Z,46.50
2019-02-27T09:27:40.790Z,46.70
2019-02-27T09:28:54.102Z,47.20
2019-02-27T09:30:17.462Z,45.70
2019-02-27T09:31:30.697Z,45.60
2019-02-27T09:32:46.021Z,45.80
2019-02-27T09:33:59.333Z,46.20
2019-02-27T09:35:13.089Z,45.80
2019-02-27T09:36:26.333Z,45.10
2019-02-27T09:37:39.566Z,45.70
2019-02-27T09:38:57.274Z,45.70
2019-02-27T09:40:11.047Z,45.30
2019-02-27T09:41:24.285Z,44.30
2019-02-27T09:42:37.516Z,44.90
2019-02-27T09:43:50.749Z,44.80
2019-02-27T09:45:04.525Z,44.20
2019-02-27T09:46:19.604Z,44.20
2019-02-27T09:47:32.727Z,43.80
2019-02-27T09:48:45.945Z,43.00
2019-02-27T09:49:59.188Z,42.50
2019-02-27T09:51:12.419Z,43.00
2019-02-27T09:52:27.814Z,43.40
2019-02-27T09:53:40.590Z,43.20
2019-02-27T09:54:54.847Z,42.80
2019-02-27T09:56:08.649Z,42.90
2019-02-27T09:57:21.869Z,41.70
2019-02-27T09:58:35.101Z,41.40
2019-02-27T09:59:48.349Z,41.40
2019-02-27T10:01:07.427Z,41.50
2019-02-27T10:02:20.658Z,40.80
2019-02-27T10:03:33.881Z,39.70
2019-02-27T10:04:47.114Z,39.20
2019-02-27T10:06:01.541Z,40.20
2019-02-27T10:07:17.102Z,39.30
2019-02-27T10:08:29.722Z,39.50
2019-02-27T10:09:42.941Z,39.10
2019-02-27T10:10:56.184Z,39.10
2019-02-27T10:12:09.476Z,38.80
2019-02-27T10:13:23.942Z,38.00
2019-02-27T10:14:37.168Z,38.10
2019-02-27T10:15:50.401Z,37.70
2019-02-27T10:17:03.637Z,38.70
2019-02-27T10:18:18.959Z,38.40
2019-02-27T10:19:31.804Z,37.60
2019-02-27T10:20:45.046Z,37.60
2019-02-27T10:21:58.274Z,36.90
2019-02-27T10:23:11.496Z,36.40
2019-02-27T10:24:24.733Z,34.20
2019-02-27T10:25:37.964Z,33.10
2019-02-27T10:26:53.585Z,30.70
2019-02-27T10:28:06.154Z,31.90
2019-02-27T10:29:19.391Z,33.00
2019-02-27T10:30:32.633Z,33.70
2019-02-27T10:31:45.857Z,33.70
2019-02-27T10:32:59.094Z,34.20
2019-02-27T10:34:14.556Z,35.10
2019-02-27T10:35:29.392Z,34.30
2019-02-27T10:36:43.414Z,35.00
2019-02-27T10:37:56.798Z,34.50
2019-02-27T10:39:10.091Z,34.50
2019-02-27T10:40:24.649Z,34.10
2019-02-27T10:41:39.736Z,34.10
2019-02-27T10:42:52.965Z,32.40
2019-02-27T10:44:06.194Z,32.40
2019-02-27T10:45:19.410Z,31.20
2019-02-27T10:46:32.655Z,31.50
2019-02-27T10:47:46.861Z,30.60
2019-02-27T10:49:00.088Z,29.70
2019-02-27T10:50:13.855Z,30.00
2019-02-27T10:51:27.104Z,30.30
2019-02-27T10:52:40.343Z,30.50
2019-02-27T10:53:53.562Z,30.20
2019-02-27T10:55:11.335Z,30.60
2019-02-27T10:56:24.884Z,30.20
2019-02-27T10:57:38.576Z,30.20
2019-02-27T10:58:51.924Z,30.00
2019-02-27T11:00:08.413Z,31.60
2019-02-27T11:01:21.657Z,29.80
2019-02-27T11:02:34.892Z,29.20
2019-02-27T11:03:48.133Z,30.00
2019-02-27T11:05:01.361Z,28.40
2019-02-27T11:06:14.598Z,29.00
2019-02-27T11:07:27.849Z,29.80
2019-02-27T11:08:41.073Z,29.30
2019-02-27T11:09:54.312Z,28.30
2019-02-27T11:11:08.741Z,28.40
2019-02-27T11:12:22.050Z,28.40
2019-02-27T11:13:35.269Z,28.40
2019-02-27T11:14:48.498Z,28.40
2019-02-27T11:16:03.366Z,28.20
2019-02-27T11:17:16.629Z,28.80
2019-02-27T11:18:29.857Z,28.80
2019-02-27T11:19:46.272Z,27.30
2019-02-27T11:20:59.537Z,27.10
2019-02-27T11:22:12.835Z,27.60
2019-02-27T11:23:26.061Z,27.50
2019-02-27T11:24:39.284Z,26.70
2019-02-27T11:25:56.652Z,26.60
2019-02-27T11:27:07.470Z,26.80
2019-02-27T11:28:21.006Z,26.00
2019-02-27T11:29:42.473Z,26.60
2019-02-27T11:31:01.685Z,27.30
2019-02-27T11:32:14.929Z,27.30
2019-02-27T11:33:32.533Z,26.60
2019-02-27T11:34:45.551Z,26.20
2019-02-27T11:35:59.684Z,26.30
2019-02-27T11:37:13.938Z,25.90
2019-02-27T11:38:27.534Z,25.90
2019-02-27T11:39:40.764Z,26.70
2019-02-27T11:40:53.984Z,25.90
2019-02-27T11:42:07.213Z,26.20
2019-02-27T11:43:20.447Z,26.80
2019-02-27T11:44:33.756Z,26.60
2019-02-27T11:45:46.992Z,26.30
2019-02-27T11:47:00.217Z,26.80
2019-02-27T11:48:13.449Z,26.60
2019-02-27T11:49:26.692Z,26.20
2019-02-27T11:50:39.936Z,26.20
2019-02-27T11:51:53.930Z,25.80
2019-02-27T11:53:07.156Z,25.40
2019-02-27T11:54:20.385Z,26.10
2019-02-27T11:55:33.625Z,25.40
2019-02-27T11:56:46.861Z,25.30
2019-02-27T11:58:04.410Z,24.70
2019-02-27T11:59:15.041Z,24.10
2019-02-27T12:00:32.957Z,23.10
2019-02-27T12:01:47.812Z,21.50
2019-02-27T12:03:01.041Z,21.00
2019-02-27T12:04:14.274Z,19.90
2019-02-27T12:05:33.748Z,18.90
2019-02-27T12:06:43.078Z,18.10
2019-02-27T12:07:56.309Z,17.30
2019-02-27T12:09:09.536Z,16.10
2019-02-27T12:10:30.961Z,15.60
2019-02-27T12:11:48.315Z,15.30
2019-02-27T12:13:01.362Z,15.70
2019-02-27T12:14:14.977Z,15.80
2019-02-27T12:15:28.257Z,15.20
2019-02-27T12:16:41.491Z,16.00
2019-02-27T12:17:59.733Z,16.30
2019-02-27T12:19:09.666Z,16.80
2019-02-27T12:20:23.468Z,17.40
2019-02-27T12:21:36.709Z,16.30
2019-02-27T12:22:51.370Z,17.00
2019-02-27T12:24:05.421Z,16.00
2019-02-27T12:25:20.115Z,16.20
2019-02-27T12:26:34.409Z,15.80
2019-02-27T12:27:50.096Z,15.30
2019-02-27T12:29:03.410Z,14.60
2019-02-27T12:30:21.537Z,13.70
2019-02-27T12:31:36.076Z,12.00
2019-02-27T12:32:49.289Z,12.30
2019-02-27T12:34:03.361Z,12.00
2019-02-27T12:35:18.857Z,13.20
2019-02-27T12:36:32.082Z,12.40
2019-02-27T12:37:45.313Z,13.40
2019-02-27T12:38:58.537Z,13.30
2019-02-27T12:40:14.663Z,13.40
2019-02-27T12:41:30.024Z,13.10
2019-02-27T12:42:43.230Z,14.00
2019-02-27T12:43:56.486Z,14.10
2019-02-27T12:45:15.468Z,15.20
2019-02-27T12:46:28.748Z,15.60
2019-02-27T12:47:42.692Z,15.50
2019-02-27T12:48:55.924Z,15.90
2019-02-27T12:50:11.588Z,15.60
2019-02-27T12:51:25.908Z,16.60
2019-02-27T12:52:39.129Z,16.30
2019-02-27T12:53:54.620Z,15.70
2019-02-27T12:55:07.476Z,15.30
2019-02-27T12:56:20.720Z,15.20
2019-02-27T12:57:33.961Z,15.20
2019-02-27T12:58:47.230Z,14.90
2019-02-27T13:00:00.476Z,15.30
2019-02-27T13:01:16.162Z,15.00
2019-02-27T13:02:35.676Z,14.40
2019-02-27T13:03:43.605Z,14.50
2019-02-27T13:04:57.925Z,13.80
2019-02-27T13:06:11.257Z,13.40
2019-02-27T13:07:24.496Z,13.70
2019-02-27T13:08:37.721Z,12.80
2019-02-27T13:09:50.965Z,12.10
2019-02-27T13:11:07.952Z,12.40
2019-02-27T13:12:20.797Z,12.90
2019-02-27T13:13:34.029Z,11.90
2019-02-27T13:14:47.260Z,12.50
2019-02-27T13:16:00.496Z,12.90
2019-02-27T13:17:13.721Z,12.70
2019-02-27T13:18:31.635Z,13.00
2019-02-27T13:19:41.922Z,14.30
2019-02-27T13:20:55.165Z,13.60
2019-02-27T13:22:08.404Z,13.20
2019-02-27T13:23:21.633Z,12.80
2019-02-27T13:24:34.869Z,12.80
2019-02-27T13:25:50.988Z,13.70
2019-02-27T13:27:09.070Z,13.10
2019-02-27T13:28:20.289Z,13.10
2019-02-27T13:29:33.517Z,13.80
2019-02-27T13:30:46.753Z,13.20
2019-02-27T13:31:59.986Z,13.50
2019-02-27T13:33:13.213Z,13.80
2019-02-27T13:34:26.450Z,13.60
2019-02-27T13:35:40.631Z,13.60
2019-02-27T13:36:53.861Z,13.20
2019-02-27T13:38:07.101Z,12.50
2019-02-27T13:39:20.325Z,13.40
2019-02-27T13:40:35.646Z,11.80
2019-02-27T13:41:48.502Z,11.50
2019-02-27T13:43:01.784Z,12.10
2019-02-27T13:44:15.069Z,11.40
2019-02-27T13:45:28.944Z,11.60
2019-02-27T13:46:42.173Z,11.40
2019-02-27T13:47:55.396Z,12.40
2019-02-27T13:49:08.630Z,12.90
2019-02-27T13:50:23.453Z,12.40
2019-02-27T13:51:40.045Z,12.30
2019-02-27T13:52:51.829Z,13.00
2019-02-27T13:54:05.074Z,13.20
2019-02-27T13:55:19.555Z,13.70
2019-02-27T13:56:32.828Z,13.60
2019-02-27T13:57:46.064Z,14.00
2019-02-27T13:58:59.304Z,13.90
2019-02-27T14:00:21.590Z,13.00
2019-02-27T14:01:36.549Z,13.10
2019-02-27T14:02:52.473Z,12.50
2019-02-27T14:04:05.711Z,12.50
2019-02-27T14:05:18.941Z,12.80
2019-02-27T14:06:32.175Z,14.50
2019-02-27T14:07:45.399Z,13.50
2019-02-27T14:08:58.622Z,13.00
2019-02-27T14:10:17.163Z,13.50
2019-02-27T14:11:29.549Z,14.00
2019-02-27T14:12:42.778Z,13.80
2019-02-27T14:13:56.000Z,13.80
2019-02-27T14:15:11.662Z,14.30
2019-02-27T14:16:24.917Z,14.10
2019-02-27T14:17:41.402Z,15.20
2019-02-27T14:18:54.150Z,15.30
2019-02-27T14:20:11.736Z,15.00
2019-02-27T14:21:24.973Z,14.00
2019-02-27T14:22:40.660Z,13.60
2019-02-27T14:23:53.145Z,13.40
2019-02-27T14:25:09.921Z,12.80
2019-02-27T14:26:23.156Z,13.30
2019-02-27T14:27:36.391Z,13.20
2019-02-27T14:28:52.143Z,13.10
2019-02-27T14:30:10.665Z,13.40
2019-02-27T14:31:23.873Z,13.80
2019-02-27T14:32:37.109Z,14.50
2019-02-27T14:33:51.256Z,14.00
2019-02-27T14:35:05.572Z,14.10
2019-02-27T14:36:19.688Z,14.50
2019-02-27T14:37:32.929Z,14.60
2019-02-27T14:38:46.241Z,14.30
2019-02-27T14:40:03.777Z,13.40
2019-02-27T14:41:15.149Z,14.60
2019-02-27T14:42:28.468Z,14.10
2019-02-27T14:43:41.685Z,14.00
2019-02-27T14:44:54.916Z,14.70
2019-02-27T14:46:11.511Z,14.20
2019-02-27T14:47:25.496Z,13.80
2019-02-27T14:48:38.741Z,14.30
2019-02-27T14:49:51.977Z,13.80
2019-02-27T14:51:07.996Z,14.20
2019-02-27T14:52:20.149Z,14.40
2019-02-27T14:53:34.359Z,13.80
2019-02-27T14:54:47.584Z,14.00
2019-02-27T14:56:10.030Z,14.20
2019-02-27T14:57:23.091Z,13.80
2019-02-27T14:58:36.310Z,14.20
2019-02-27T14:59:49.540Z,14.90
2019-02-27T15:01:02.777Z,14.50
2019-02-27T15:02:22.034Z,15.20
2019-02-27T15:03:33.152Z,15.20
2019-02-27T15:04:46.386Z,15.30
2019-02-27T15:05:59.629Z,15.10
2019-02-27T15:07:12.853Z,15.20
2019-02-27T15:08:26.084Z,15.40
2019-02-27T15:09:47.581Z,15.10
2019-02-27T15:10:54.277Z,15.60
2019-02-27T15:12:07.512Z,15.60
2019-02-27T15:13:20.729Z,15.80
2019-02-27T15:14:33.966Z,16.00
2019-02-27T15:15:47.220Z,15.90
2019-02-27T15:17:00.500Z,16.20
2019-02-27T15:18:14.096Z,15.80
2019-02-27T15:19:30.075Z,16.50
2019-02-27T15:20:42.253Z,16.40
2019-02-27T15:21:55.493Z,17.10
2019-02-27T15:23:08.725Z,17.30
2019-02-27T15:24:21.957Z,17.40
2019-02-27T15:25:42.229Z,17.30
2019-02-27T15:26:51.467Z,17.10
2019-02-27T15:28:04.695Z,16.80
2019-02-27T15:29:17.917Z,16.50
2019-02-27T15:30:32.178Z,17.00
2019-02-27T15:31:45.409Z,16.90
2019-02-27T15:33:03.735Z,16.30
2019-02-27T15:34:14.858Z,16.30
2019-02-27T15:35:28.436Z,15.60
2019-02-27T15:36:41.749Z,15.80
2019-02-27T15:37:54.974Z,16.60
2019-02-27T15:39:09.825Z,16.40
2019-02-27T15:40:28.568Z,16.80
2019-02-27T15:41:39.642Z,17.40
2019-02-27T15:42:54.121Z,17.70
2019-02-27T15:44:08.646Z,18.20
2019-02-27T15:45:23.113Z,18.30
2019-02-27T15:46:36.340Z,18.90
2019-02-27T15:47:49.576Z,19.10
2019-02-27T15:49:02.865Z,20.60
2019-02-27T15:50:32.781Z,20.00
2019-02-27T15:51:46.016Z,19.60
2019-02-27T15:52:59.252Z,20.20
2019-02-27T15:54:12.476Z,20.40
2019-02-27T15:55:25.703Z,20.20
2019-02-27T15:56:41.506Z,19.60
2019-02-27T15:57:54.260Z,19.80
2019-02-27T15:59:08.358Z,20.00
2019-02-27T16:00:23.008Z,19.70
2019-02-27T16:01:36.237Z,19.70
2019-02-27T16:02:49.453Z,19.50
2019-02-27T16:04:02.684Z,19.60
2019-02-27T16:05:15.989Z,19.90
2019-02-27T16:06:29.518Z,20.90
2019-02-27T16:07:48.535Z,20.50
2019-02-27T16:08:58.380Z,20.40
2019-02-27T16:10:17.126Z,21.00
2019-02-27T16:11:30.336Z,21.10
2019-02-27T16:12:43.556Z,20.90
2019-02-27T16:13:56.796Z,21.00
2019-02-27T16:15:16.498Z,21.20